Time;durP1;ratioP1;P1;durP2;ratioP2;P2;SDS_P1;SDS_P2;PMS_P1;PMS_P2;Temp;Humidity;BMP_temperature;BMP_pressure;BME280_temperature;BME280_humidity;BME280_pressure;Samples;Min_cycle;Max_cycle;Signal;HPM_P1;HPM_P2
2023/06/26 00:01:42;;;;;;;11.50;6.77;;;;;;;;;;5068503;28;20262;-35
2023/06/26 00:04:07;;;;;;;7.07;3.95;;;;;;;;;;5062711;28;20028;-35
2023/06/26 00:06:33;;;;;;;9.60;6.55;;;;;;;;;;5068435;28;20035;-35
2023/06/26 00:08:58;;;;;;;9.63;6.37;;;;;;;;;;5060600;28;20067;-35
2023/06/26 00:11:24;;;;;;;9.60;6.70;;;;;;;;;;5063215;28;20040;-35
2023/06/26 00:13:49;;;;;;;11.65;6.85;;;;;;;;;;5054880;28;20835;-35
2023/06/26 00:16:14;;;;;;;13.85;6.72;;;;;;;;;;5061844;28;20024;-35
2023/06/26 00:18:40;;;;;;;9.77;6.70;;;;;;;;;;5060751;28;20022;-35
2023/06/26 00:21:05;;;;;;;10.83;7.03;;;;;;;;;;5062929;28;20387;-35
2023/06/26 00:23:32;;;;;;;10.70;6.40;;;;;;;;;;5067163;28;20012;-35
2023/06/26 00:25:57;;;;;;;9.77;6.32;;;;;;;;;;5064063;28;20595;-35
2023/06/26 00:28:22;;;;;;;12.07;7.17;;;;;;;;;;5067279;28;20036;-35
2023/06/26 00:30:48;;;;;;;9.80;6.97;;;;;;;;;;5063773;28;20271;-35
2023/06/26 00:33:16;;;;;;;12.63;6.95;;;;;;;;;;5065512;28;20393;-35
2023/06/26 00:35:42;;;;;;;11.05;7.30;;;;;;;;;;5063681;28;20040;-35
2023/06/26 00:38:07;;;;;;;10.57;6.97;;;;;;;;;;5057373;28;20364;-35
2023/06/26 00:40:32;;;;;;;9.67;6.47;;;;;;;;;;5059421;28;20020;-35
2023/06/26 00:42:58;;;;;;;8.90;6.13;;;;;;;;;;5062359;28;20024;-35
2023/06/26 00:45:23;;;;;;;9.25;6.72;;;;;;;;;;5072380;28;20502;-35
2023/06/26 00:47:48;;;;;;;10.10;7.20;;;;;;;;;;5063857;28;20043;-35
2023/06/26 00:50:15;;;;;;;9.27;6.33;;;;;;;;;;5061794;28;20035;-35
2023/06/26 00:52:41;;;;;;;10.80;6.53;;;;;;;;;;5064774;28;20334;-35
2023/06/26 00:55:07;;;;;;;9.70;7.07;;;;;;;;;;5057228;28;21360;-35
2023/06/26 00:57:32;;;;;;;16.42;7.18;;;;;;;;;;5066221;28;20016;-35
2023/06/26 00:59:57;;;;;;;11.70;6.82;;;;;;;;;;5060209;28;20025;-35
2023/06/26 01:02:23;;;;;;;14.63;7.07;;;;;;;;;;5063169;28;20029;-35
2023/06/26 01:04:49;;;;;;;11.53;6.83;;;;;;;;;;5055853;28;20792;-35
2023/06/26 01:07:15;;;;;;;12.52;7.43;;;;;;;;;;5062505;28;20285;-35
2023/06/26 01:09:40;;;;;;;10.00;7.18;;;;;;;;;;5062790;28;20422;-35
2023/06/26 01:12:06;;;;;;;10.38;6.35;;;;;;;;;;5070124;28;20494;-35
2023/06/26 01:14:32;;;;;;;11.00;7.38;;;;;;;;;;5064996;28;20383;-35
2023/06/26 01:16:58;;;;;;;9.43;6.50;;;;;;;;;;5063291;28;20032;-35
2023/06/26 01:19:26;;;;;;;11.95;7.10;;;;;;;;;;5069702;28;20030;-35
2023/06/26 01:21:57;;;;;;;13.20;7.82;;;;;;;;;;5062266;28;20028;-35
2023/06/26 01:24:27;;;;;;;10.43;7.60;;;;;;;;;;5064449;28;20115;-35
2023/06/26 01:26:53;;;;;;;9.38;6.72;;;;;;;;;;5073983;28;20035;-35
2023/06/26 01:29:19;;;;;;;11.68;6.68;;;;;;;;;;5062625;28;20040;-35
2023/06/26 01:31:47;;;;;;;14.65;7.85;;;;;;;;;;5069277;28;20032;-35
2023/06/26 01:34:13;;;;;;;11.68;6.88;;;;;;;;;;5064408;28;20117;-35
2023/06/26 01:36:38;;;;;;;10.57;7.00;;;;;;;;;;5066474;28;21507;-36
2023/06/26 01:39:04;;;;;;;11.10;6.80;;;;;;;;;;5067520;28;20017;-35
2023/06/26 01:41:29;;;;;;;13.50;7.17;;;;;;;;;;5057248;28;20029;-35
2023/06/26 01:43:57;;;;;;;11.43;7.38;;;;;;;;;;5067696;28;20093;-35
2023/06/26 01:46:24;;;;;;;12.15;6.47;;;;;;;;;;5068346;28;20107;-35
2023/06/26 01:48:55;;;;;;;13.43;7.45;;;;;;;;;;5068360;28;20548;-35
2023/06/26 01:51:21;;;;;;;10.32;6.40;;;;;;;;;;5063775;28;20036;-35
2023/06/26 01:53:50;;;;;;;11.25;7.25;;;;;;;;;;5060648;28;20032;-35
2023/06/26 01:56:18;;;;;;;10.30;7.28;;;;;;;;;;5067591;28;20114;-35
2023/06/26 01:58:46;;;;;;;12.07;7.25;;;;;;;;;;5058329;28;20425;-35
2023/06/26 02:01:11;;;;;;;11.68;7.40;;;;;;;;;;5060259;28;20029;-35
2023/06/26 02:03:37;;;;;;;10.85;6.43;;;;;;;;;;5066547;28;20032;-35
2023/06/26 02:06:02;;;;;;;8.13;5.85;;;;;;;;;;5064669;28;20035;-35
2023/06/26 02:08:27;;;;;;;11.02;7.35;;;;;;;;;;5065107;28;20040;-35
2023/06/26 02:10:53;;;;;;;9.17;6.30;;;;;;;;;;5064283;28;20045;-35
2023/06/26 02:13:18;;;;;;;11.23;6.57;;;;;;;;;;5069073;28;20271;-35
2023/06/26 02:15:43;;;;;;;9.73;6.37;;;;;;;;;;5061532;28;20090;-35
2023/06/26 02:18:08;;;;;;;10.33;6.90;;;;;;;;;;5062079;28;20123;-35
2023/06/26 02:20:34;;;;;;;9.87;6.93;;;;;;;;;;5062404;28;20025;-35
2023/06/26 02:22:59;;;;;;;10.23;6.70;;;;;;;;;;5064571;28;20037;-35
2023/06/26 02:25:24;;;;;;;12.13;6.17;;;;;;;;;;5062106;28;20490;-35
2023/06/26 02:27:49;;;;;;;10.57;6.63;;;;;;;;;;5058341;28;20399;-35
2023/06/26 02:30:15;;;;;;;10.93;6.10;;;;;;;;;;5058910;28;20339;-35
2023/06/26 02:32:40;;;;;;;10.93;6.03;;;;;;;;;;5061168;28;20518;-35
2023/06/26 02:35:05;;;;;;;10.63;6.63;;;;;;;;;;5066678;28;20387;-35
2023/06/26 02:37:31;;;;;;;12.52;6.95;;;;;;;;;;5060111;28;20361;-35
2023/06/26 02:39:56;;;;;;;12.13;7.05;;;;;;;;;;5061331;28;20024;-35
2023/06/26 02:42:21;;;;;;;10.87;6.53;;;;;;;;;;5063904;28;20033;-35
2023/06/26 02:44:47;;;;;;;7.00;3.97;;;;;;;;;;5066357;28;20052;-34
2023/06/26 02:47:12;;;;;;;10.47;6.27;;;;;;;;;;5066649;28;20025;-35
2023/06/26 02:49:37;;;;;;;11.00;6.07;;;;;;;;;;5061211;28;20081;-34
2023/06/26 02:52:02;;;;;;;9.50;6.30;;;;;;;;;;5063898;28;20064;-34
2023/06/26 02:54:28;;;;;;;12.52;6.65;;;;;;;;;;5063874;28;20375;-35
2023/06/26 02:56:53;;;;;;;13.17;6.37;;;;;;;;;;5065414;28;20020;-34
2023/06/26 02:59:18;;;;;;;13.53;8.10;;;;;;;;;;5065846;28;20512;-35
2023/06/26 03:01:43;;;;;;;14.27;7.53;;;;;;;;;;5059653;28;20275;-34
2023/06/26 03:04:10;;;;;;;14.50;6.73;;;;;;;;;;5067039;28;20346;-35
2023/06/26 03:06:35;;;;;;;10.25;6.90;;;;;;;;;;5064789;28;21076;-35
2023/06/26 03:09:00;;;;;;;11.03;7.40;;;;;;;;;;5059613;28;20033;-33
2023/06/26 03:11:26;;;;;;;12.75;7.15;;;;;;;;;;5061748;28;20294;-35
2023/06/26 03:13:51;;;;;;;13.13;6.70;;;;;;;;;;5060164;28;20025;-34
2023/06/26 03:16:16;;;;;;;11.00;6.63;;;;;;;;;;5063736;28;20306;-35
2023/06/26 03:18:42;;;;;;;13.13;6.90;;;;;;;;;;5066885;28;20618;-35
2023/06/26 03:21:08;;;;;;;11.63;6.53;;;;;;;;;;5065617;28;20142;-34
2023/06/26 03:23:34;;;;;;;9.52;6.75;;;;;;;;;;5063954;28;20464;-35
2023/06/26 03:25:59;;;;;;;10.47;7.13;;;;;;;;;;5065943;28;20050;-34
2023/06/26 03:28:24;;;;;;;12.70;7.10;;;;;;;;;;5065351;28;20268;-35
2023/06/26 03:30:50;;;;;;;10.85;6.47;;;;;;;;;;5063236;28;20449;-34
2023/06/26 03:33:15;;;;;;;10.73;7.57;;;;;;;;;;5060619;28;20264;-35
2023/06/26 03:35:40;;;;;;;11.40;6.57;;;;;;;;;;5062483;28;20033;-35
2023/06/26 03:38:05;;;;;;;11.00;6.63;;;;;;;;;;5057371;28;20544;-34
2023/06/26 03:40:31;;;;;;;11.77;6.63;;;;;;;;;;5061411;28;20024;-35
2023/06/26 03:42:56;;;;;;;10.13;6.53;;;;;;;;;;5067044;28;20894;-34
2023/06/26 03:45:21;;;;;;;9.73;6.53;;;;;;;;;;5061065;28;20090;-34
2023/06/26 03:47:48;;;;;;;13.03;7.13;;;;;;;;;;5067692;28;20021;-34
2023/06/26 03:50:14;;;;;;;13.85;6.97;;;;;;;;;;5061566;28;20281;-34
2023/06/26 03:52:39;;;;;;;10.75;6.65;;;;;;;;;;5064391;28;20103;-35
2023/06/26 03:55:05;;;;;;;9.70;6.37;;;;;;;;;;5060014;28;20056;-34
2023/06/26 03:57:30;;;;;;;10.85;6.78;;;;;;;;;;5064639;28;20021;-35
2023/06/26 03:59:56;;;;;;;9.40;6.03;;;;;;;;;;5057949;28;20025;-34
2023/06/26 04:02:21;;;;;;;10.93;7.07;;;;;;;;;;5063325;28;20353;-34
2023/06/26 04:04:46;;;;;;;11.43;6.13;;;;;;;;;;5063632;28;20021;-34
2023/06/26 04:07:11;;;;;;;12.80;7.20;;;;;;;;;;5065129;28;20022;-34
2023/06/26 04:09:37;;;;;;;10.30;7.73;;;;;;;;;;5059176;28;20289;-35
2023/06/26 04:12:03;;;;;;;10.68;6.97;;;;;;;;;;5065463;28;20314;-34
2023/06/26 04:14:28;;;;;;;15.27;8.80;;;;;;;;;;5064468;28;20033;-34
2023/06/26 04:16:54;;;;;;;10.83;6.97;;;;;;;;;;5064136;28;20067;-35
2023/06/26 04:19:19;;;;;;;12.00;6.95;;;;;;;;;;5065662;28;20032;-35
2023/06/26 04:21:45;;;;;;;11.75;6.88;;;;;;;;;;5058652;28;20111;-35
2023/06/26 04:24:10;;;;;;;12.48;7.00;;;;;;;;;;5065179;28;20089;-35
2023/06/26 04:26:35;;;;;;;10.80;7.05;;;;;;;;;;5067176;28;20425;-35
2023/06/26 04:29:01;;;;;;;11.90;7.10;;;;;;;;;;5068836;28;21227;-35
2023/06/26 04:31:26;;;;;;;13.27;7.43;;;;;;;;;;5069080;28;20031;-35
2023/06/26 04:33:54;;;;;;;13.52;7.45;;;;;;;;;;5073223;28;20719;-35
2023/06/26 04:36:19;;;;;;;10.10;6.63;;;;;;;;;;5070301;28;20502;-34
2023/06/26 04:38:45;;;;;;;12.00;6.55;;;;;;;;;;5065648;28;20033;-35
2023/06/26 04:41:10;;;;;;;12.07;7.47;;;;;;;;;;5069902;28;20398;-35
2023/06/26 04:43:35;;;;;;;9.23;6.37;;;;;;;;;;5073427;28;20258;-34
2023/06/26 04:46:02;;;;;;;13.20;7.10;;;;;;;;;;5067858;28;20379;-35
2023/06/26 04:48:27;;;;;;;10.85;6.47;;;;;;;;;;5066115;28;20639;-34
2023/06/26 04:50:53;;;;;;;11.10;6.37;;;;;;;;;;5068445;28;20459;-35
2023/06/26 04:53:19;;;;;;;15.65;7.20;;;;;;;;;;5064992;28;20020;-35
2023/06/26 04:55:45;;;;;;;13.57;6.57;;;;;;;;;;5066278;28;20032;-35
2023/06/26 04:58:10;;;;;;;11.73;6.67;;;;;;;;;;5069973;28;20426;-35
2023/06/26 05:00:35;;;;;;;14.43;6.90;;;;;;;;;;5066974;28;20262;-34
2023/06/26 05:03:01;;;;;;;13.13;6.78;;;;;;;;;;5066755;28;20021;-35
2023/06/26 05:05:29;;;;;;;12.68;7.40;;;;;;;;;;5061984;28;20020;-35
2023/06/26 05:07:55;;;;;;;12.43;7.40;;;;;;;;;;5065562;28;20032;-35
2023/06/26 05:10:20;;;;;;;9.52;6.50;;;;;;;;;;5069721;28;20390;-35
2023/06/26 05:12:45;;;;;;;11.17;7.23;;;;;;;;;;5064250;28;20033;-35
2023/06/26 05:15:11;;;;;;;11.33;6.30;;;;;;;;;;5065984;28;20294;-35
2023/06/26 05:17:36;;;;;;;12.33;6.47;;;;;;;;;;5067802;28;20306;-35
2023/06/26 05:20:03;;;;;;;39.17;24.57;;;;;;;;;;5069932;28;20032;-35
2023/06/26 05:22:29;;;;;;;56.03;33.88;;;;;;;;;;5065173;28;20796;-35
2023/06/26 05:24:54;;;;;;;32.35;17.27;;;;;;;;;;5061223;28;20029;-35
2023/06/26 05:27:21;;;;;;;20.05;11.35;;;;;;;;;;5065299;28;20020;-34
2023/06/26 05:29:47;;;;;;;14.88;9.13;;;;;;;;;;5061433;28;20424;-35
2023/06/26 05:32:15;;;;;;;14.20;8.27;;;;;;;;;;5066934;28;20052;-35
2023/06/26 05:34:41;;;;;;;16.80;9.00;;;;;;;;;;5069671;28;20103;-35
2023/06/26 05:37:06;;;;;;;12.07;8.13;;;;;;;;;;5066357;28;20450;-34
2023/06/26 05:39:32;;;;;;;16.02;7.95;;;;;;;;;;5070345;28;20024;-35
2023/06/26 05:41:57;;;;;;;19.65;11.13;;;;;;;;;;5065175;28;20020;-34
2023/06/26 05:44:23;;;;;;;12.40;7.18;;;;;;;;;;5063252;28;20111;-35
2023/06/26 05:46:48;;;;;;;7.27;4.87;;;;;;;;;;5060849;28;20384;-34
2023/06/26 05:49:13;;;;;;;18.23;9.80;;;;;;;;;;5060460;28;20317;-35
2023/06/26 05:51:39;;;;;;;13.47;7.63;;;;;;;;;;5060031;28;20278;-34
2023/06/26 05:54:05;;;;;;;12.18;7.80;;;;;;;;;;5057773;28;20475;-35
2023/06/26 05:56:30;;;;;;;21.50;10.35;;;;;;;;;;5062421;28;20399;-35
2023/06/26 05:58:56;;;;;;;17.95;10.15;;;;;;;;;;5067389;28;20012;-34
2023/06/26 06:01:21;;;;;;;14.55;9.23;;;;;;;;;;5064735;28;20479;-35
2023/06/26 06:03:46;;;;;;;10.38;7.47;;;;;;;;;;5068305;28;20035;-35
2023/06/26 06:06:12;;;;;;;13.37;7.93;;;;;;;;;;5068701;28;20421;-35
2023/06/26 06:08:37;;;;;;;12.35;8.77;;;;;;;;;;5062111;28;20305;-36
2023/06/26 06:11:02;;;;;;;12.37;9.10;;;;;;;;;;5060794;28;20634;-35
2023/06/26 06:13:28;;;;;;;17.17;9.45;;;;;;;;;;5067682;28;20049;-35
2023/06/26 06:15:53;;;;;;;19.30;9.77;;;;;;;;;;5068206;28;20021;-35
2023/06/26 06:18:18;;;;;;;16.27;9.30;;;;;;;;;;5064954;28;20024;-35
2023/06/26 06:20:44;;;;;;;20.97;9.30;;;;;;;;;;5065166;28;20278;-35
2023/06/26 06:23:09;;;;;;;13.93;8.47;;;;;;;;;;5065980;28;20537;-35
2023/06/26 06:25:34;;;;;;;14.45;8.63;;;;;;;;;;5067320;28;20064;-36
2023/06/26 06:27:59;;;;;;;10.50;7.57;;;;;;;;;;5066587;28;20028;-36
2023/06/26 06:30:25;;;;;;;13.83;8.60;;;;;;;;;;5068110;28;20358;-36
2023/06/26 06:32:52;;;;;;;16.20;9.10;;;;;;;;;;5050753;28;20024;-36
2023/06/26 06:35:18;;;;;;;13.68;9.18;;;;;;;;;;5064826;28;20286;-34
2023/06/26 06:37:43;;;;;;;13.43;8.02;;;;;;;;;;5063428;28;20029;-34
2023/06/26 06:40:09;;;;;;;9.17;5.50;;;;;;;;;;5049384;28;20727;-35
2023/06/26 06:42:35;;;;;;;15.32;7.95;;;;;;;;;;5058202;28;20012;-35
2023/06/26 06:45:04;;;;;;;15.57;7.72;;;;;;;;;;5062305;28;20050;-34
2023/06/26 06:47:29;;;;;;;12.10;7.05;;;;;;;;;;5060095;28;20025;-35
2023/06/26 06:49:54;;;;;;;9.43;4.60;;;;;;;;;;5056206;28;20093;-35
2023/06/26 06:52:20;;;;;;;11.48;7.30;;;;;;;;;;5054630;28;20116;-35
2023/06/26 06:54:55;;;;;;;10.30;7.07;;;;;;;;;;5033390;28;20039;-35
2023/06/26 06:57:21;;;;;;;7.20;4.65;;;;;;;;;;5048531;28;20095;-35
2023/06/26 06:59:47;;;;;;;11.10;7.03;;;;;;;;;;5054011;28;20107;-35
2023/06/26 07:02:12;;;;;;;12.27;6.93;;;;;;;;;;5051833;28;20024;-35
2023/06/26 07:04:37;;;;;;;9.70;6.95;;;;;;;;;;5051000;28;20027;-35
2023/06/26 07:07:03;;;;;;;10.37;7.17;;;;;;;;;;5052817;28;20047;-34
2023/06/26 07:09:28;;;;;;;12.45;7.90;;;;;;;;;;5047208;28;20151;-34
2023/06/26 07:11:53;;;;;;;15.70;8.30;;;;;;;;;;5054007;28;20411;-34
2023/06/26 07:14:19;;;;;;;22.50;12.43;;;;;;;;;;5054045;28;20040;-34
2023/06/26 07:16:44;;;;;;;15.83;11.00;;;;;;;;;;5060236;28;20694;-34
2023/06/26 07:19:10;;;;;;;14.05;8.70;;;;;;;;;;5061185;28;20049;-35
2023/06/26 07:21:36;;;;;;;10.40;7.97;;;;;;;;;;5058966;28;20017;-35
2023/06/26 07:24:01;;;;;;;11.53;8.07;;;;;;;;;;5056510;28;20021;-34
2023/06/26 07:26:26;;;;;;;14.95;9.43;;;;;;;;;;5061040;28;20119;-35
2023/06/26 07:28:52;;;;;;;12.23;8.40;;;;;;;;;;5055710;28;20027;-34
2023/06/26 07:31:17;;;;;;;13.07;8.30;;;;;;;;;;5056274;28;20376;-34
2023/06/26 07:33:42;;;;;;;10.65;7.57;;;;;;;;;;5054728;28;20051;-35
2023/06/26 07:36:07;;;;;;;7.73;4.63;;;;;;;;;;5061513;28;20021;-34
2023/06/26 07:38:33;;;;;;;10.70;7.03;;;;;;;;;;5062366;28;20028;-34
2023/06/26 07:40:58;;;;;;;12.20;7.70;;;;;;;;;;5051970;28;20282;-34
2023/06/26 07:43:23;;;;;;;10.87;7.73;;;;;;;;;;5052640;28;20024;-35
2023/06/26 07:45:51;;;;;;;11.93;7.60;;;;;;;;;;5055305;28;20290;-35
2023/06/26 07:48:16;;;;;;;13.10;7.47;;;;;;;;;;5059809;28;20040;-34
2023/06/26 07:50:41;;;;;;;11.85;7.13;;;;;;;;;;5054591;28;20029;-35
2023/06/26 07:53:07;;;;;;;17.10;10.33;;;;;;;;;;5055886;28;20063;-35
2023/06/26 07:55:32;;;;;;;13.90;7.70;;;;;;;;;;5060440;28;20331;-34
2023/06/26 07:57:57;;;;;;;11.90;7.63;;;;;;;;;;5059033;28;20713;-34
2023/06/26 08:00:22;;;;;;;11.47;7.23;;;;;;;;;;5059657;28;20402;-35
2023/06/26 08:02:48;;;;;;;13.23;8.55;;;;;;;;;;5047594;28;20040;-35
2023/06/26 08:05:13;;;;;;;8.97;6.00;;;;;;;;;;5061050;28;20036;-35
2023/06/26 08:07:39;;;;;;;12.50;7.65;;;;;;;;;;5064678;28;20356;-35
2023/06/26 08:10:04;;;;;;;9.73;6.80;;;;;;;;;;5064427;28;20050;-35
2023/06/26 08:12:30;;;;;;;9.93;7.30;;;;;;;;;;5068281;28;20043;-35
2023/06/26 08:14:55;;;;;;;11.40;7.40;;;;;;;;;;5069213;28;20407;-35
2023/06/26 08:17:20;;;;;;;13.03;8.13;;;;;;;;;;5061797;28;20029;-35
2023/06/26 08:19:45;;;;;;;16.60;7.77;;;;;;;;;;5068673;28;20678;-35
2023/06/26 08:22:11;;;;;;;9.43;6.90;;;;;;;;;;5067056;28;20036;-35
2023/06/26 08:24:36;;;;;;;14.87;7.47;;;;;;;;;;5070136;28;20262;-35
2023/06/26 08:27:03;;;;;;;13.50;6.88;;;;;;;;;;5071037;28;20028;-35
2023/06/26 08:29:28;;;;;;;10.50;6.47;;;;;;;;;;5064427;28;21141;-35
2023/06/26 08:31:54;;;;;;;9.02;6.18;;;;;;;;;;5083349;28;20027;-35
2023/06/26 08:34:19;;;;;;;13.83;9.43;;;;;;;;;;5066328;28;20031;-35
2023/06/26 08:36:44;;;;;;;13.37;8.20;;;;;;;;;;5064044;28;20035;-35
2023/06/26 08:39:10;;;;;;;11.68;6.90;;;;;;;;;;5060885;28;20097;-36
2023/06/26 08:41:36;;;;;;;13.05;6.90;;;;;;;;;;5068068;28;20040;-36
2023/06/26 08:44:02;;;;;;;9.23;5.97;;;;;;;;;;5068552;28;20103;-36
2023/06/26 08:46:28;;;;;;;11.80;6.50;;;;;;;;;;5070468;28;20029;-36
2023/06/26 08:49:00;;;;;;;10.10;6.20;;;;;;;;;;5071944;28;20042;-36
2023/06/26 08:51:28;;;;;;;10.85;7.28;;;;;;;;;;5068489;28;21119;-36
2023/06/26 08:53:57;;;;;;;9.23;7.20;;;;;;;;;;5068231;28;20432;-36
2023/06/26 08:56:23;;;;;;;9.07;6.07;;;;;;;;;;5070744;28;20401;-37
2023/06/26 08:58:49;;;;;;;9.52;6.22;;;;;;;;;;5072167;28;20009;-35
2023/06/26 09:01:15;;;;;;;13.98;8.75;;;;;;;;;;5063092;28;20989;-36
2023/06/26 09:03:41;;;;;;;13.70;7.45;;;;;;;;;;5059749;28;20092;-36
2023/06/26 09:06:06;;;;;;;12.35;6.32;;;;;;;;;;5060161;28;20033;-36
2023/06/26 09:08:32;;;;;;;11.50;6.22;;;;;;;;;;5068864;28;20048;-36
2023/06/26 09:10:57;;;;;;;10.93;6.50;;;;;;;;;;5067379;28;20032;-36
2023/06/26 09:13:22;;;;;;;11.37;5.83;;;;;;;;;;5061833;28;20017;-35
2023/06/26 09:15:48;;;;;;;9.95;6.32;;;;;;;;;;5058044;28;20297;-36
2023/06/26 09:18:13;;;;;;;13.77;6.83;;;;;;;;;;5062744;28;20402;-36
2023/06/26 09:20:39;;;;;;;9.43;6.25;;;;;;;;;;5071303;28;20028;-35
2023/06/26 09:23:05;;;;;;;11.73;6.93;;;;;;;;;;5065075;28;20024;-35
2023/06/26 09:25:30;;;;;;;7.10;5.70;;;;;;;;;;5066060;28;20294;-35
2023/06/26 09:27:56;;;;;;;9.10;6.18;;;;;;;;;;5064410;28;20556;-35
2023/06/26 09:30:22;;;;;;;9.35;5.28;;;;;;;;;;5070681;28;20031;-35
2023/06/26 09:32:47;;;;;;;10.77;6.17;;;;;;;;;;5067015;28;20040;-35
2023/06/26 09:35:12;;;;;;;8.77;5.72;;;;;;;;;;5068490;28;20369;-36
2023/06/26 09:37:38;;;;;;;8.00;5.53;;;;;;;;;;5069475;28;20013;-36
2023/06/26 09:40:04;;;;;;;11.13;5.97;;;;;;;;;;5069558;28;20278;-36
2023/06/26 09:42:30;;;;;;;9.10;5.55;;;;;;;;;;5066933;28;20096;-35
2023/06/26 09:44:55;;;;;;;9.52;5.25;;;;;;;;;;5062489;28;20239;-36
2023/06/26 09:47:20;;;;;;;7.43;5.30;;;;;;;;;;5064607;28;20016;-35
2023/06/26 09:49:46;;;;;;;8.35;6.00;;;;;;;;;;5063473;28;20298;-35
2023/06/26 09:52:15;;;;;;;8.43;5.55;;;;;;;;;;5069650;28;20028;-36
2023/06/26 09:54:40;;;;;;;8.75;6.20;;;;;;;;;;5062244;28;20590;-36
2023/06/26 09:57:09;;;;;;;8.93;6.07;;;;;;;;;;5067988;28;20112;-35
2023/06/26 09:59:35;;;;;;;12.20;5.95;;;;;;;;;;5063249;28;20043;-35
2023/06/26 10:02:00;;;;;;;8.90;6.10;;;;;;;;;;5062858;28;20381;-36
2023/06/26 10:04:25;;;;;;;6.88;5.00;;;;;;;;;;5067401;28;20066;-35
2023/06/26 10:06:52;;;;;;;7.80;5.43;;;;;;;;;;5069748;28;20502;-36
2023/06/26 10:09:18;;;;;;;8.02;5.35;;;;;;;;;;5072180;28;20036;-35
2023/06/26 10:12:06;;;;;;;10.40;6.75;;;;;;;;;;5067525;28;20028;-36
2023/06/26 10:14:39;;;;;;;10.55;6.50;;;;;;;;;;5050520;28;20383;-36
2023/06/26 10:17:07;;;;;;;9.63;5.68;;;;;;;;;;5056681;28;20025;-36
2023/06/26 10:19:33;;;;;;;10.35;6.35;;;;;;;;;;5058399;28;20581;-36
2023/06/26 10:21:59;;;;;;;6.97;5.68;;;;;;;;;;5051775;28;20032;-36
2023/06/26 10:24:26;;;;;;;7.82;4.97;;;;;;;;;;5065727;28;20051;-35
2023/06/26 10:26:59;;;;;;;10.32;6.38;;;;;;;;;;5059625;28;20028;-36
2023/06/26 10:29:25;;;;;;;9.95;5.85;;;;;;;;;;5060288;28;20108;-36
2023/06/26 10:31:52;;;;;;;11.52;5.53;;;;;;;;;;5063557;28;20036;-36
2023/06/26 10:34:17;;;;;;;8.60;6.05;;;;;;;;;;5068448;28;20426;-36
2023/06/26 10:36:43;;;;;;;9.30;6.65;;;;;;;;;;5066145;28;20536;-36
2023/06/26 10:39:08;;;;;;;11.10;7.03;;;;;;;;;;5060704;28;20021;-36
2023/06/26 10:41:38;;;;;;;7.90;5.50;;;;;;;;;;5066578;28;20422;-37
2023/06/26 10:44:10;;;;;;;10.90;7.55;;;;;;;;;;5068284;28;20043;-36
2023/06/26 10:46:52;;;;;;;5.70;3.80;;;;;;;;;;5061012;28;20036;-36
2023/06/26 10:49:18;;;;;;;8.35;5.53;;;;;;;;;;5063364;28;20048;-36
2023/06/26 10:51:48;;;;;;;7.88;5.22;;;;;;;;;;5060187;28;20522;-35
2023/06/26 10:54:14;;;;;;;8.80;6.32;;;;;;;;;;5061374;28;20029;-35
2023/06/26 10:56:49;;;;;;;10.43;7.55;;;;;;;;;;5059686;28;20108;-35
2023/06/26 10:59:19;;;;;;;12.50;8.02;;;;;;;;;;5067939;28;20046;-35
2023/06/26 11:01:45;;;;;;;9.57;6.70;;;;;;;;;;5059377;28;20017;-35
2023/06/26 11:04:15;;;;;;;11.00;6.60;;;;;;;;;;5056987;28;20379;-35
2023/06/26 11:06:40;;;;;;;8.63;5.93;;;;;;;;;;5055011;28;20147;-35
2023/06/26 11:09:13;;;;;;;7.63;5.97;;;;;;;;;;5052400;28;20510;-35
2023/06/26 11:11:52;;;;;;;8.60;5.82;;;;;;;;;;5053752;28;20035;-35
2023/06/26 11:14:18;;;;;;;9.43;6.40;;;;;;;;;;5059507;28;20063;-35
2023/06/26 11:16:44;;;;;;;11.13;7.57;;;;;;;;;;5058620;28;20987;-35
2023/06/26 11:19:09;;;;;;;10.05;5.93;;;;;;;;;;5066963;28;20032;-35
2023/06/26 11:21:36;;;;;;;6.97;5.22;;;;;;;;;;5067560;28;20483;-36
2023/06/26 11:24:02;;;;;;;14.15;5.30;;;;;;;;;;5071662;28;20024;-36
2023/06/26 11:26:27;;;;;;;9.20;5.80;;;;;;;;;;5061437;28;20029;-36
2023/06/26 11:28:56;;;;;;;13.17;6.00;;;;;;;;;;5061546;28;20031;-36
2023/06/26 11:31:25;;;;;;;7.78;5.63;;;;;;;;;;5061153;28;20270;-36
2023/06/26 11:33:51;;;;;;;9.18;5.53;;;;;;;;;;5059637;28;20380;-36
2023/06/26 11:36:16;;;;;;;8.77;5.95;;;;;;;;;;5065805;28;20117;-35
2023/06/26 11:38:41;;;;;;;6.83;5.43;;;;;;;;;;5056376;28;20447;-36
2023/06/26 11:41:08;;;;;;;7.50;5.03;;;;;;;;;;5063265;28;20328;-35
2023/06/26 11:43:34;;;;;;;6.65;5.10;;;;;;;;;;5062002;28;20019;-35
2023/06/26 11:45:59;;;;;;;8.68;5.45;;;;;;;;;;5064074;28;20374;-35
2023/06/26 11:48:25;;;;;;;8.47;5.47;;;;;;;;;;5062472;28;20487;-36
2023/06/26 11:50:51;;;;;;;8.85;5.50;;;;;;;;;;5062739;28;20279;-36
2023/06/26 11:53:16;;;;;;;9.10;5.07;;;;;;;;;;5057263;28;20052;-36
2023/06/26 11:55:44;;;;;;;6.67;4.93;;;;;;;;;;5055916;28;20071;-35
2023/06/26 11:58:10;;;;;;;7.40;4.63;;;;;;;;;;5055408;28;20021;-36
2023/06/26 12:00:35;;;;;;;8.60;5.63;;;;;;;;;;5055236;28;20074;-36
2023/06/26 12:03:01;;;;;;;10.10;5.43;;;;;;;;;;5066037;28;20025;-35
2023/06/26 12:05:26;;;;;;;7.35;4.70;;;;;;;;;;5065332;28;20024;-35
2023/06/26 12:07:53;;;;;;;6.93;4.93;;;;;;;;;;5061473;28;20123;-36
2023/06/26 12:10:19;;;;;;;7.38;5.43;;;;;;;;;;5058291;28;20043;-36
2023/06/26 12:12:45;;;;;;;11.38;6.85;;;;;;;;;;5063671;28;20033;-35
2023/06/26 12:15:14;;;;;;;11.02;7.50;;;;;;;;;;5065413;28;20471;-35
2023/06/26 12:17:39;;;;;;;12.80;5.47;;;;;;;;;;5074134;28;20127;-35
2023/06/26 12:20:05;;;;;;;8.18;5.50;;;;;;;;;;5064009;28;20128;-35
2023/06/26 12:22:34;;;;;;;10.10;5.30;;;;;;;;;;5062753;28;20048;-36
2023/06/26 12:24:59;;;;;;;10.18;4.68;;;;;;;;;;5068374;28;20531;-36
2023/06/26 12:27:25;;;;;;;7.00;4.93;;;;;;;;;;5065673;28;20032;-35
2023/06/26 12:29:54;;;;;;;6.70;5.32;;;;;;;;;;5063369;28;20048;-35
2023/06/26 12:32:19;;;;;;;7.28;4.72;;;;;;;;;;5071728;28;20067;-35
2023/06/26 12:34:55;;;;;;;6.85;5.00;;;;;;;;;;5067585;28;20048;-35
2023/06/26 12:37:21;;;;;;;7.18;4.70;;;;;;;;;;5062675;28;20040;-35
2023/06/26 12:39:47;;;;;;;8.23;5.20;;;;;;;;;;5062488;28;20395;-35
2023/06/26 12:42:16;;;;;;;7.57;5.18;;;;;;;;;;5059979;28;20345;-35
2023/06/26 12:44:42;;;;;;;7.13;5.30;;;;;;;;;;5061413;28;20036;-36
2023/06/26 12:47:08;;;;;;;11.00;5.47;;;;;;;;;;5072689;28;20017;-35
2023/06/26 12:49:34;;;;;;;10.02;5.03;;;;;;;;;;5070737;28;20279;-35
2023/06/26 12:51:59;;;;;;;8.93;5.32;;;;;;;;;;5067739;28;20077;-35
2023/06/26 12:54:25;;;;;;;11.10;5.93;;;;;;;;;;5067264;28;25451;-35
2023/06/26 12:56:51;;;;;;;7.77;5.20;;;;;;;;;;5074202;28;20025;-35
2023/06/26 12:59:16;;;;;;;8.48;4.70;;;;;;;;;;5070183;28;20521;-35
2023/06/26 13:01:41;;;;;;;6.73;5.13;;;;;;;;;;5062260;28;20025;-35
2023/06/26 13:04:08;;;;;;;8.53;4.77;;;;;;;;;;5056545;28;20023;-35
2023/06/26 13:06:33;;;;;;;7.88;4.65;;;;;;;;;;5069972;28;20799;-36
2023/06/26 13:08:58;;;;;;;8.57;5.47;;;;;;;;;;5068766;28;20029;-36
2023/06/26 13:11:23;;;;;;;8.40;5.10;;;;;;;;;;5066225;28;20029;-35
2023/06/26 13:13:49;;;;;;;4.07;3.30;;;;;;;;;;5065926;28;21074;-35
2023/06/26 13:16:14;;;;;;;10.55;7.40;;;;;;;;;;5062032;28;20055;-35
2023/06/26 13:18:39;;;;;;;9.80;7.43;;;;;;;;;;5063670;28;20103;-36
2023/06/26 13:21:05;;;;;;;6.73;5.17;;;;;;;;;;5056234;28;21575;-35
2023/06/26 13:23:30;;;;;;;7.93;5.17;;;;;;;;;;5063992;28;20028;-36
2023/06/26 13:25:55;;;;;;;6.53;4.70;;;;;;;;;;5062620;28;20360;-35
2023/06/26 13:28:20;;;;;;;9.87;5.20;;;;;;;;;;5065701;28;20055;-35
2023/06/26 13:30:46;;;;;;;9.73;4.43;;;;;;;;;;5067019;28;20031;-35
2023/06/26 13:33:11;;;;;;;8.07;5.20;;;;;;;;;;5072403;28;20024;-36
2023/06/26 13:35:36;;;;;;;8.90;5.67;;;;;;;;;;5059429;28;20283;-35
2023/06/26 13:38:01;;;;;;;13.63;8.07;;;;;;;;;;5058276;28;20162;-36
2023/06/26 13:40:27;;;;;;;9.60;6.30;;;;;;;;;;5066704;28;20023;-36
2023/06/26 13:42:52;;;;;;;6.90;5.10;;;;;;;;;;5053969;28;20012;-35
2023/06/26 13:45:17;;;;;;;13.53;8.77;;;;;;;;;;5060496;28;20166;-35
2023/06/26 13:47:42;;;;;;;9.00;4.60;;;;;;;;;;5064938;28;20050;-36
2023/06/26 13:50:09;;;;;;;6.77;4.90;;;;;;;;;;5062498;28;20032;-36
2023/06/26 13:52:34;;;;;;;7.07;4.95;;;;;;;;;;5067873;28;20024;-36
2023/06/26 13:54:59;;;;;;;7.57;4.73;;;;;;;;;;5068220;28;20097;-36
2023/06/26 13:57:27;;;;;;;9.93;5.17;;;;;;;;;;5065620;28;20338;-36
2023/06/26 13:59:52;;;;;;;6.90;5.32;;;;;;;;;;5061453;28;20513;-36
2023/06/26 14:02:18;;;;;;;7.75;5.28;;;;;;;;;;5066480;28;20028;-36
2023/06/26 14:04:43;;;;;;;6.80;4.90;;;;;;;;;;5062596;28;20538;-36
2023/06/26 14:07:09;;;;;;;6.63;4.28;;;;;;;;;;5065863;28;20032;-36
2023/06/26 14:09:34;;;;;;;6.22;4.32;;;;;;;;;;5063361;28;20028;-36
2023/06/26 14:11:59;;;;;;;6.30;4.60;;;;;;;;;;5057506;28;20016;-36
2023/06/26 14:14:25;;;;;;;9.63;6.00;;;;;;;;;;5064041;28;20600;-36
2023/06/26 14:16:50;;;;;;;8.80;5.50;;;;;;;;;;5059621;28;20021;-36
2023/06/26 14:19:17;;;;;;;12.30;8.80;;;;;;;;;;5066205;28;21310;-36
2023/06/26 14:21:42;;;;;;;7.80;5.93;;;;;;;;;;5065564;28;20282;-36
2023/06/26 14:24:08;;;;;;;7.95;4.82;;;;;;;;;;5056803;28;20028;-36
2023/06/26 14:26:33;;;;;;;22.63;16.57;;;;;;;;;;5065240;28;20478;-36